createdAt,value
2022-10-12T00:00:19.483Z,27.97
2022-10-12T00:02:46.880Z,29.23
2022-10-12T00:05:14.304Z,28.83
2022-10-12T00:07:43.091Z,26.67
2022-10-12T00:10:10.502Z,24.60
2022-10-12T00:12:37.888Z,24.77
2022-10-12T00:15:06.206Z,22.67
2022-10-12T00:17:33.628Z,24.80
2022-10-12T00:20:01.049Z,25.63
2022-10-12T00:22:28.467Z,25.67
2022-10-12T00:24:57.174Z,22.73
2022-10-12T00:27:24.733Z,22.83
2022-10-12T00:29:52.161Z,25.50
2022-10-12T00:32:20.224Z,20.43
2022-10-12T00:34:47.594Z,22.57
2022-10-12T00:37:14.992Z,23.77
2022-10-12T00:39:42.363Z,19.20
2022-10-12T00:42:13.396Z,19.00
2022-10-12T00:44:44.500Z,22.03
2022-10-12T00:47:19.547Z,22.83
2022-10-12T00:49:51.264Z,20.30
2022-10-12T00:52:24.095Z,22.90
2022-10-12T00:54:54.627Z,20.83
2022-10-12T00:57:24.434Z,22.23
2022-10-12T00:59:56.644Z,25.30
2022-10-12T01:02:26.925Z,27.93
2022-10-12T01:04:54.835Z,36.73
2022-10-12T01:07:22.234Z,29.03
2022-10-12T01:09:49.978Z,29.00
2022-10-12T01:12:18.319Z,28.90
2022-10-12T01:14:47.132Z,30.87
2022-10-12T01:17:24.106Z,26.70
2022-10-12T01:20:07.577Z,28.47
2022-10-12T01:22:43.000Z,33.80
2022-10-12T01:25:22.874Z,26.77
2022-10-12T01:27:53.867Z,21.60
2022-10-12T01:30:23.969Z,22.00
2022-10-12T01:33:06.740Z,22.30
2022-10-12T01:35:40.723Z,25.03
2022-10-12T01:38:18.884Z,20.73
2022-10-12T01:40:54.853Z,22.73
2022-10-12T01:43:23.559Z,22.67
2022-10-12T01:45:52.329Z,20.93
2022-10-12T01:48:19.865Z,15.53
2022-10-12T01:50:50.838Z,21.83
2022-10-12T01:53:32.363Z,19.93
2022-10-12T01:56:08.868Z,15.23
2022-10-12T01:58:50.748Z,18.27
2022-10-12T02:01:26.212Z,16.27
2022-10-12T02:04:01.928Z,24.33
2022-10-12T02:06:33.751Z,18.43
2022-10-12T02:09:06.973Z,20.10
2022-10-12T02:11:38.409Z,15.90
2022-10-12T02:14:10.117Z,15.47
2022-10-12T02:16:43.053Z,16.57
2022-10-12T02:19:14.469Z,18.23
2022-10-12T02:21:42.235Z,15.97
2022-10-12T02:24:12.566Z,13.80
2022-10-12T02:26:43.627Z,18.00
2022-10-12T02:29:14.495Z,18.23
2022-10-12T02:31:52.147Z,21.30
2022-10-12T02:34:24.572Z,13.93
2022-10-12T02:36:57.704Z,18.13
2022-10-12T02:39:31.186Z,16.43
2022-10-12T02:42:04.854Z,17.30
2022-10-12T02:44:35.573Z,18.23
2022-10-12T02:47:07.924Z,19.07
2022-10-12T02:49:36.976Z,18.20
2022-10-12T02:52:06.700Z,15.50
2022-10-12T02:54:34.422Z,19.80
2022-10-12T02:57:01.888Z,16.20
2022-10-12T02:59:29.428Z,18.30
2022-10-12T03:01:56.837Z,17.03
2022-10-12T03:04:25.611Z,14.50
2022-10-12T03:06:53.056Z,17.50
2022-10-12T03:09:20.753Z,16.23
2022-10-12T03:11:48.245Z,18.50
2022-10-12T03:14:16.803Z,17.53
2022-10-12T03:16:46.462Z,17.87
2022-10-12T03:19:14.124Z,18.77
2022-10-12T03:21:42.850Z,18.77
2022-10-12T03:24:10.305Z,24.87
2022-10-12T03:26:37.754Z,25.63
2022-10-12T03:29:05.459Z,20.83
2022-10-12T03:31:32.857Z,19.80
2022-10-12T03:34:00.499Z,14.97
2022-10-12T03:36:27.940Z,16.13
2022-10-12T03:38:56.672Z,14.50
2022-10-12T03:41:24.073Z,16.63
2022-10-12T03:43:51.637Z,14.60
2022-10-12T03:46:19.051Z,16.03
2022-10-12T03:48:46.464Z,13.50
2022-10-12T03:51:13.964Z,14.33
2022-10-12T03:53:45.429Z,14.20
2022-10-12T03:56:14.527Z,12.73
2022-10-12T03:58:41.936Z,12.53
2022-10-12T04:01:09.367Z,13.27
2022-10-12T04:03:36.786Z,14.93
2022-10-12T04:06:04.725Z,14.77
2022-10-12T04:08:32.137Z,15.80
2022-10-12T04:10:59.586Z,17.83
2022-10-12T04:13:28.306Z,18.30
2022-10-12T04:15:55.696Z,12.90
2022-10-12T04:18:23.142Z,15.57
2022-10-12T04:20:50.917Z,14.30
2022-10-12T04:23:18.307Z,16.23
2022-10-12T04:25:45.659Z,20.30
2022-10-12T04:28:13.418Z,15.70
2022-10-12T04:30:42.189Z,21.07
2022-10-12T04:33:09.605Z,15.23
2022-10-12T04:35:37.203Z,16.23
2022-10-12T04:38:05.117Z,10.97
2022-10-12T04:40:32.552Z,10.43
2022-10-12T04:42:59.961Z,12.90
2022-10-12T04:45:27.425Z,16.60
2022-10-12T04:47:56.243Z,15.37
2022-10-12T04:50:29.724Z,16.80
2022-10-12T04:52:57.481Z,15.03
2022-10-12T04:55:25.075Z,25.77
2022-10-12T04:57:52.448Z,26.77
2022-10-12T05:00:19.863Z,36.03
2022-10-12T05:02:47.757Z,27.10
2022-10-12T05:05:16.633Z,38.87
2022-10-12T05:07:44.084Z,35.37
2022-10-12T05:10:11.741Z,35.13
2022-10-12T05:12:39.471Z,24.20
2022-10-12T05:15:08.249Z,26.17
2022-10-12T05:17:35.708Z,40.07
2022-10-12T05:20:03.305Z,35.00
2022-10-12T05:22:32.270Z,30.07
2022-10-12T05:24:59.671Z,25.37
2022-10-12T05:27:27.128Z,19.93
2022-10-12T05:29:54.668Z,21.10
2022-10-12T05:32:22.063Z,22.90
2022-10-12T05:34:49.472Z,14.93
2022-10-12T05:37:17.343Z,17.67
2022-10-12T05:39:46.672Z,14.60
2022-10-12T05:42:14.045Z,16.10
2022-10-12T05:44:41.422Z,13.60
2022-10-12T05:47:08.864Z,15.83
2022-10-12T05:49:36.304Z,15.23
2022-10-12T05:52:03.965Z,16.10
2022-10-12T05:54:31.399Z,21.33
2022-10-12T05:57:00.150Z,16.60
2022-10-12T05:59:27.546Z,16.83
2022-10-12T06:01:55.067Z,16.90
2022-10-12T06:04:22.489Z,18.83
2022-10-12T06:06:49.907Z,20.33
2022-10-12T06:09:17.357Z,18.83
2022-10-12T06:11:44.818Z,16.63
2022-10-12T06:14:15.168Z,18.10
2022-10-12T06:16:42.681Z,17.17
2022-10-12T06:19:11.755Z,16.77
2022-10-12T06:21:39.373Z,16.80
2022-10-12T06:24:07.321Z,19.97
2022-10-12T06:26:34.991Z,15.67
2022-10-12T06:29:02.374Z,13.50
2022-10-12T06:31:32.415Z,22.10
2022-10-12T06:33:59.848Z,18.13
2022-10-12T06:36:27.254Z,16.60
2022-10-12T06:38:55.173Z,16.43
2022-10-12T06:41:22.682Z,19.50
2022-10-12T06:43:50.071Z,20.37
2022-10-12T06:46:17.631Z,19.10
2022-10-12T06:48:46.404Z,18.50
2022-10-12T06:51:13.909Z,20.53
2022-10-12T06:53:41.284Z,16.90
2022-10-12T06:56:09.635Z,20.97
2022-10-12T06:58:37.385Z,20.30
2022-10-12T07:01:05.637Z,17.47
2022-10-12T07:03:33.104Z,13.60
2022-10-12T07:06:08.920Z,17.13
2022-10-12T07:08:36.328Z,19.80
2022-10-12T07:11:05.037Z,17.60
2022-10-12T07:13:32.722Z,16.07
2022-10-12T07:16:00.289Z,16.40
2022-10-12T07:18:27.806Z,18.53
2022-10-12T07:20:59.639Z,18.10
2022-10-12T07:23:28.491Z,17.87
2022-10-12T07:25:56.071Z,19.70
2022-10-12T07:28:23.572Z,20.67
2022-10-12T07:30:51.330Z,20.13
2022-10-12T07:33:18.793Z,19.20
2022-10-12T07:36:12.828Z,14.23
2022-10-12T07:38:44.992Z,16.80
2022-10-12T07:41:12.910Z,12.67
2022-10-12T07:43:40.340Z,21.90
2022-10-12T07:46:08.802Z,12.93
2022-10-12T07:48:36.316Z,15.77
2022-10-12T07:51:05.192Z,19.57
2022-10-12T07:53:34.832Z,15.33
2022-10-12T07:56:05.327Z,15.17
2022-10-12T07:58:32.998Z,14.93
2022-10-12T08:01:05.995Z,16.90
2022-10-12T08:03:33.455Z,16.60
2022-10-12T08:06:01.176Z,20.53
2022-10-12T08:08:28.599Z,15.23
2022-10-12T08:10:57.736Z,12.50
2022-10-12T08:13:26.470Z,19.53
2022-10-12T08:15:54.101Z,14.50
2022-10-12T08:18:21.590Z,12.87
2022-10-12T08:20:49.161Z,14.00
2022-10-12T08:23:16.612Z,17.00
2022-10-12T08:25:51.677Z,9.47
2022-10-12T08:28:19.142Z,11.37
2022-10-12T08:30:47.954Z,14.90
2022-10-12T08:33:15.936Z,12.70
2022-10-12T08:35:43.959Z,10.83
2022-10-12T08:38:13.225Z,11.33
2022-10-12T08:40:50.678Z,13.83
2022-10-12T08:43:29.197Z,14.50
2022-10-12T08:46:00.725Z,16.03
2022-10-12T08:48:32.541Z,13.17
2022-10-12T08:51:03.805Z,16.73
2022-10-12T08:53:36.445Z,13.07
2022-10-12T08:56:03.963Z,11.07
2022-10-12T08:58:34.047Z,13.20
2022-10-12T09:01:21.966Z,14.10
2022-10-12T09:04:02.534Z,15.27
2022-10-12T09:06:35.896Z,15.03
2022-10-12T09:09:09.875Z,19.60
2022-10-12T09:11:55.122Z,12.90
2022-10-12T09:14:27.754Z,8.53
2022-10-12T09:16:57.584Z,12.87
2022-10-12T09:19:33.326Z,13.83
2022-10-12T09:22:02.276Z,17.30
2022-10-12T09:24:35.523Z,15.47
2022-10-12T09:27:14.547Z,14.50
2022-10-12T09:29:42.876Z,17.47
2022-10-12T09:32:35.217Z,11.23
2022-10-12T09:35:04.849Z,16.73
2022-10-12T09:37:34.232Z,15.70
2022-10-12T09:40:02.159Z,11.37
2022-10-12T09:42:29.558Z,14.73
2022-10-12T09:45:00.313Z,14.03
2022-10-12T09:47:31.441Z,13.77
2022-10-12T09:50:01.062Z,13.43
2022-10-12T09:52:31.837Z,12.10
2022-10-12T09:55:05.216Z,14.27
2022-10-12T09:57:35.060Z,15.07
2022-10-12T10:00:06.360Z,7.87
2022-10-12T10:02:48.711Z,11.77
2022-10-12T10:05:25.131Z,11.23
2022-10-12T10:07:52.740Z,14.40
2022-10-12T10:10:28.273Z,18.67
2022-10-12T10:13:01.097Z,10.17
2022-10-12T10:15:31.243Z,11.63
2022-10-12T10:18:01.909Z,9.57
2022-10-12T10:20:32.810Z,13.03
2022-10-12T10:23:01.301Z,10.13
2022-10-12T10:25:29.043Z,14.27
2022-10-12T10:28:22.580Z,11.07
2022-10-12T10:30:59.060Z,13.07
2022-10-12T10:33:27.882Z,10.57
2022-10-12T10:36:00.313Z,8.83
2022-10-12T10:38:28.994Z,11.07
2022-10-12T10:40:58.066Z,6.80
2022-10-12T10:43:29.728Z,11.63
2022-10-12T10:45:59.921Z,11.00
2022-10-12T10:48:32.020Z,9.07
2022-10-12T10:51:02.296Z,8.47
2022-10-12T10:53:34.040Z,10.43
2022-10-12T10:56:06.486Z,7.73
2022-10-12T10:58:38.184Z,7.27
2022-10-12T11:01:16.452Z,8.37
2022-10-12T11:03:54.384Z,7.10
2022-10-12T11:06:29.661Z,6.80
2022-10-12T11:09:03.763Z,5.87
2022-10-12T11:11:36.007Z,10.07
2022-10-12T11:14:10.667Z,6.47
2022-10-12T11:16:44.598Z,6.40
2022-10-12T11:19:25.409Z,10.73
2022-10-12T11:21:57.452Z,6.73
2022-10-12T11:24:29.411Z,6.33
2022-10-12T11:27:02.758Z,7.37
2022-10-12T11:29:30.598Z,10.77
2022-10-12T11:32:04.057Z,6.97
2022-10-12T11:34:43.410Z,9.13
2022-10-12T11:37:20.316Z,10.93
2022-10-12T11:39:53.567Z,8.33
2022-10-12T11:42:32.004Z,9.27
2022-10-12T11:45:01.941Z,7.87
2022-10-12T11:47:35.433Z,10.50
2022-10-12T11:50:08.266Z,6.63
2022-10-12T11:52:41.702Z,9.00
2022-10-12T11:55:28.073Z,5.63
2022-10-12T11:58:00.044Z,8.97
2022-10-12T12:00:38.113Z,7.27
2022-10-12T12:03:19.873Z,9.47
2022-10-12T12:05:48.704Z,8.40
2022-10-12T12:08:24.172Z,5.83
2022-10-12T12:11:05.369Z,12.20
2022-10-12T12:13:34.993Z,6.37
2022-10-12T12:16:33.609Z,6.67
2022-10-12T12:19:16.030Z,6.67
2022-10-12T12:22:14.515Z,10.73
2022-10-12T12:24:53.347Z,7.77
2022-10-12T12:27:31.511Z,7.90
2022-10-12T12:30:01.172Z,5.80
2022-10-12T12:32:42.819Z,10.90
2022-10-12T12:35:21.057Z,7.23
2022-10-12T12:37:50.347Z,9.97
2022-10-12T12:40:24.541Z,10.43
2022-10-12T12:42:51.967Z,10.63
2022-10-12T12:45:41.985Z,12.07
2022-10-12T12:48:10.818Z,9.60
2022-10-12T12:50:41.633Z,8.47
2022-10-12T12:53:18.519Z,11.87
2022-10-12T12:56:03.487Z,7.73
2022-10-12T12:58:49.088Z,7.70
2022-10-12T13:01:45.349Z,7.87
2022-10-12T13:04:41.847Z,9.73
2022-10-12T13:07:34.824Z,10.37
2022-10-12T13:10:17.649Z,6.37
2022-10-12T13:13:02.592Z,9.43
2022-10-12T13:15:38.504Z,19.87
2022-10-12T13:18:47.352Z,14.53
2022-10-12T13:21:19.180Z,12.33
2022-10-12T13:23:49.234Z,8.43
2022-10-12T13:26:22.719Z,8.40
2022-10-12T13:28:50.744Z,11.20
2022-10-12T13:31:24.087Z,7.80
2022-10-12T13:34:00.385Z,10.40
2022-10-12T13:36:30.175Z,8.47
2022-10-12T13:38:59.528Z,14.40
2022-10-12T13:41:31.294Z,8.47
2022-10-12T13:44:00.648Z,6.93
2022-10-12T13:46:41.637Z,8.50
2022-10-12T13:49:17.834Z,15.37
2022-10-12T13:51:48.408Z,8.77
2022-10-12T13:54:18.601Z,10.73
2022-10-12T13:56:49.055Z,7.43
2022-10-12T13:59:19.792Z,6.27
2022-10-12T14:01:53.031Z,7.63
2022-10-12T14:04:20.821Z,9.93
2022-10-12T14:06:53.899Z,47.33
2022-10-12T14:09:25.062Z,19.20
2022-10-12T14:11:55.444Z,13.67
2022-10-12T14:14:29.336Z,7.77
2022-10-12T14:16:56.807Z,9.97
2022-10-12T14:19:34.363Z,12.30
2022-10-12T14:22:03.438Z,8.53
2022-10-12T14:24:31.616Z,9.50
2022-10-12T14:27:02.736Z,7.33
2022-10-12T14:29:35.710Z,7.43
2022-10-12T14:32:05.630Z,7.77
2022-10-12T14:34:42.400Z,8.33
2022-10-12T14:37:36.848Z,6.93
2022-10-12T14:40:35.476Z,4.90
2022-10-12T14:43:08.035Z,5.80
2022-10-12T14:45:35.509Z,5.57
2022-10-12T14:48:04.974Z,8.10
2022-10-12T14:50:33.296Z,11.33
2022-10-12T14:53:04.412Z,7.07
2022-10-12T14:55:34.983Z,8.40
2022-10-12T14:58:03.643Z,6.20
2022-10-12T15:00:34.878Z,5.67
2022-10-12T15:03:02.820Z,9.50
2022-10-12T15:05:32.520Z,7.93
2022-10-12T15:08:00.693Z,8.23
2022-10-12T15:10:29.167Z,9.03
2022-10-12T15:12:56.686Z,11.17
2022-10-12T15:15:31.450Z,7.83
2022-10-12T15:18:00.530Z,8.93
2022-10-12T15:20:29.658Z,11.10
2022-10-12T15:22:57.471Z,10.20
2022-10-12T15:25:29.060Z,9.17
2022-10-12T15:27:56.508Z,8.27
2022-10-12T15:30:23.894Z,7.20
2022-10-12T15:32:51.315Z,4.83
2022-10-12T15:35:23.857Z,11.87
2022-10-12T15:37:52.173Z,8.17
2022-10-12T15:40:21.513Z,6.10
2022-10-12T15:42:49.098Z,10.63
2022-10-12T15:45:19.788Z,7.73
2022-10-12T15:47:47.884Z,6.40
2022-10-12T15:50:16.339Z,7.77
2022-10-12T15:52:45.349Z,7.20
2022-10-12T15:55:16.700Z,5.33
2022-10-12T15:57:44.288Z,7.70
2022-10-12T16:00:13.384Z,14.73
2022-10-12T16:02:41.163Z,8.10
2022-10-12T16:05:17.519Z,10.20
2022-10-12T16:07:46.464Z,7.77
2022-10-12T16:10:15.362Z,7.83
2022-10-12T16:12:44.708Z,8.30
2022-10-12T16:15:13.692Z,9.03
2022-10-12T16:17:41.475Z,7.20
2022-10-12T16:20:10.724Z,11.20
2022-10-12T16:22:38.713Z,9.00
2022-10-12T16:25:10.255Z,7.83
2022-10-12T16:27:38.454Z,16.50
2022-10-12T16:30:07.636Z,32.77
2022-10-12T16:32:35.169Z,28.57
2022-10-12T16:35:02.736Z,36.90
2022-10-12T16:37:30.234Z,15.33
2022-10-12T16:39:57.802Z,29.97
2022-10-12T16:42:26.733Z,23.70
2022-10-12T16:44:54.137Z,14.17
2022-10-12T16:47:22.003Z,11.07
2022-10-12T16:49:49.492Z,13.60
2022-10-12T16:52:17.132Z,73.90
2022-10-12T16:54:44.716Z,59.80
2022-10-12T16:57:12.137Z,15.43
2022-10-12T16:59:40.862Z,13.97
2022-10-12T17:02:08.510Z,19.67
2022-10-12T17:04:35.956Z,13.67
2022-10-12T17:07:03.409Z,38.53
2022-10-12T17:09:30.967Z,45.23
2022-10-12T17:11:58.592Z,20.00
2022-10-12T17:14:26.091Z,18.70
2022-10-12T17:16:57.444Z,40.23
2022-10-12T17:19:31.848Z,48.70
2022-10-12T17:22:00.897Z,34.17
2022-10-12T17:24:30.327Z,42.47
2022-10-12T17:26:58.262Z,100.40
2022-10-12T17:29:27.902Z,116.80
2022-10-12T17:31:57.927Z,76.33
2022-10-12T17:34:27.242Z,32.03
2022-10-12T17:36:56.365Z,16.27
2022-10-12T17:39:25.060Z,13.33
2022-10-12T17:41:53.118Z,9.70
2022-10-12T17:44:20.826Z,8.73
2022-10-12T17:46:49.616Z,11.90
2022-10-12T17:49:24.474Z,12.87
2022-10-12T17:51:52.476Z,28.97
2022-10-12T17:54:20.921Z,19.23
2022-10-12T17:56:48.697Z,123.83
2022-10-12T17:59:19.151Z,41.57
2022-10-12T18:01:47.337Z,20.40
2022-10-12T18:04:14.892Z,15.90
2022-10-12T18:06:44.048Z,70.80
2022-10-12T18:09:11.951Z,478.63
2022-10-12T18:11:39.830Z,449.37
2022-10-12T18:14:09.772Z,64.37
2022-10-12T18:16:38.387Z,99.63
2022-10-12T18:19:07.674Z,48.60
2022-10-12T18:21:35.530Z,45.13
2022-10-12T18:24:07.336Z,27.20
2022-10-12T18:26:36.433Z,53.73
2022-10-12T18:29:05.145Z,26.17
2022-10-12T18:31:32.558Z,52.33
2022-10-12T18:33:59.974Z,51.70
2022-10-12T18:36:28.615Z,45.77
2022-10-12T18:38:56.127Z,58.23
2022-10-12T18:41:26.180Z,91.03
2022-10-12T18:43:57.763Z,72.03
2022-10-12T18:46:26.821Z,33.13
2022-10-12T18:48:54.369Z,24.37
2022-10-12T18:51:24.933Z,24.87
2022-10-12T18:53:52.340Z,60.50
2022-10-12T18:56:21.231Z,32.13
2022-10-12T18:58:50.228Z,24.17
2022-10-12T19:01:19.937Z,91.80
2022-10-12T19:03:48.127Z,25.80
2022-10-12T19:06:18.153Z,42.03
2022-10-12T19:08:47.587Z,104.03
2022-10-12T19:11:17.555Z,105.87
2022-10-12T19:13:45.695Z,56.53
2022-10-12T19:16:17.159Z,67.70
2022-10-12T19:18:44.644Z,179.43
2022-10-12T19:21:14.113Z,78.73
2022-10-12T19:23:42.231Z,47.00
2022-10-12T19:26:11.998Z,84.57
2022-10-12T19:28:39.796Z,24.60
2022-10-12T19:31:09.859Z,14.43
2022-10-12T19:33:39.120Z,14.97
2022-10-12T19:36:08.248Z,27.70
2022-10-12T19:38:35.952Z,33.97
2022-10-12T19:41:03.945Z,32.43
2022-10-12T19:43:33.287Z,76.30
2022-10-12T19:46:03.382Z,68.70
2022-10-12T19:48:30.897Z,69.80
2022-10-12T19:51:01.385Z,18.23
2022-10-12T19:53:29.233Z,34.50
2022-10-12T19:55:59.951Z,119.30
2022-10-12T19:58:27.473Z,36.03
2022-10-12T20:01:01.876Z,31.73
2022-10-12T20:03:29.631Z,27.13
2022-10-12T20:05:57.184Z,16.73
2022-10-12T20:08:25.945Z,17.03
2022-10-12T20:10:53.956Z,9.23
2022-10-12T20:13:21.598Z,11.60
2022-10-12T20:15:52.918Z,11.67
2022-10-12T20:18:20.812Z,12.97
2022-10-12T20:20:48.812Z,11.17
2022-10-12T20:23:16.584Z,11.77
2022-10-12T20:25:46.861Z,17.03
2022-10-12T20:28:14.619Z,13.73
2022-10-12T20:30:42.892Z,17.67
2022-10-12T20:33:11.181Z,16.60
2022-10-12T20:35:38.597Z,12.77
2022-10-12T20:38:06.013Z,13.70
2022-10-12T20:40:33.422Z,11.67
2022-10-12T20:43:06.235Z,13.93
2022-10-12T20:45:35.107Z,14.03
2022-10-12T20:48:02.574Z,16.90
2022-10-12T20:50:30.113Z,17.83
2022-10-12T20:53:00.954Z,16.13
2022-10-12T20:55:28.477Z,14.60
2022-10-12T20:57:56.195Z,16.00
2022-10-12T21:00:25.209Z,24.63
2022-10-12T21:02:52.698Z,10.07
2022-10-12T21:05:20.317Z,14.27
2022-10-12T21:07:47.957Z,15.07
2022-10-12T21:10:15.419Z,14.23
2022-10-12T21:12:42.834Z,12.03
2022-10-12T21:15:11.464Z,13.73
2022-10-12T21:17:40.176Z,11.30
2022-10-12T21:20:08.760Z,17.07
2022-10-12T21:22:36.202Z,20.40
2022-10-12T21:25:03.810Z,18.67
2022-10-12T21:27:31.312Z,19.97
2022-10-12T21:29:58.696Z,13.77
2022-10-12T21:32:26.170Z,16.10
2022-10-12T21:34:54.893Z,14.33
2022-10-12T21:37:22.485Z,22.93
2022-10-12T21:39:54.374Z,15.33
2022-10-12T21:42:22.044Z,14.67
2022-10-12T21:44:51.157Z,12.87
2022-10-12T21:47:18.637Z,14.33
2022-10-12T21:49:46.165Z,13.40
2022-10-12T21:52:15.056Z,12.70
2022-10-12T21:54:42.766Z,20.90
2022-10-12T21:57:11.359Z,22.93
2022-10-12T21:59:38.749Z,15.13
2022-10-12T22:02:06.307Z,12.50
2022-10-12T22:04:34.238Z,14.70
2022-10-12T22:07:01.621Z,19.10
2022-10-12T22:09:33.708Z,13.23
2022-10-12T22:12:01.097Z,16.70
2022-10-12T22:14:28.545Z,27.53
2022-10-12T22:16:56.029Z,15.70
2022-10-12T22:19:23.813Z,13.97
2022-10-12T22:21:52.692Z,11.23
2022-10-12T22:24:20.984Z,16.27
2022-10-12T22:26:50.067Z,15.23
2022-10-12T22:29:17.484Z,13.57
2022-10-12T22:31:46.307Z,14.40
2022-10-12T22:34:13.842Z,14.07
2022-10-12T22:36:41.347Z,14.37
2022-10-12T22:39:08.764Z,13.07
2022-10-12T22:41:36.165Z,14.77
2022-10-12T22:44:05.130Z,18.60
2022-10-12T22:46:32.578Z,14.90
2022-10-12T22:49:00.725Z,13.50
2022-10-12T22:51:31.930Z,42.73
2022-10-12T22:53:59.781Z,22.40
2022-10-12T22:56:27.255Z,12.63
2022-10-12T22:58:55.831Z,13.83
2022-10-12T23:01:25.181Z,19.20
2022-10-12T23:03:53.015Z,14.50
2022-10-12T23:06:20.943Z,14.90
2022-10-12T23:08:48.987Z,13.67
2022-10-12T23:11:18.749Z,13.93
2022-10-12T23:13:48.073Z,11.40
2022-10-12T23:16:18.131Z,12.47
2022-10-12T23:18:47.075Z,54.77
2022-10-12T23:21:16.473Z,16.07
2022-10-12T23:23:45.817Z,19.50
2022-10-12T23:26:14.998Z,15.30
2022-10-12T23:28:42.610Z,15.53
2022-10-12T23:31:12.190Z,13.40
2022-10-12T23:33:39.834Z,14.40
2022-10-12T23:36:10.939Z,12.00
2022-10-12T23:38:40.209Z,13.47
2022-10-12T23:41:08.089Z,12.07
2022-10-12T23:43:36.073Z,13.33
2022-10-12T23:46:04.389Z,13.50
2022-10-12T23:48:32.221Z,13.07
2022-10-12T23:50:59.725Z,11.77
2022-10-12T23:53:29.254Z,13.13
2022-10-12T23:55:56.799Z,12.90
2022-10-12T23:58:24.200Z,14.03
